sensor_id;sensor_type;location;lat;lon;timestamp;P1;durP1;ratioP1;P2;durP2;ratioP2
37885;SDS011;23726;52.520;13.434;2022-10-16T00:01:06;5.43;;;4.60;;
37885;SDS011;23726;52.520;13.434;2022-10-16T00:03:32;6.45;;;4.50;;
37885;SDS011;23726;52.520;13.434;2022-10-16T00:05:59;5.47;;;4.97;;
37885;SDS011;23726;52.520;13.434;2022-10-16T00:08:25;6.03;;;4.57;;
37885;SDS011;23726;52.520;13.434;2022-10-16T00:10:52;5.43;;;4.40;;
37885;SDS011;23726;52.520;13.434;2022-10-16T00:13:17;5.53;;;4.82;;
37885;SDS011;23726;52.520;13.434;2022-10-16T00:15:44;5.85;;;4.22;;
37885;SDS011;23726;52.520;13.434;2022-10-16T00:18:11;5.45;;;4.80;;
37885;SDS011;23726;52.520;13.434;2022-10-16T00:20:37;5.53;;;4.75;;
37885;SDS011;23726;52.520;13.434;2022-10-16T00:23:03;5.85;;;4.53;;
37885;SDS011;23726;52.520;13.434;2022-10-16T00:25:30;13.63;;;4.82;;
37885;SDS011;23726;52.520;13.434;2022-10-16T00:27:57;5.97;;;4.53;;
37885;SDS011;23726;52.520;13.434;2022-10-16T00:30:23;9.18;;;4.13;;
37885;SDS011;23726;52.520;13.434;2022-10-16T00:32:51;4.63;;;4.10;;
37885;SDS011;23726;52.520;13.434;2022-10-16T00:35:17;5.50;;;4.60;;
37885;SDS011;23726;52.520;13.434;2022-10-16T00:37:42;7.00;;;4.80;;
37885;SDS011;23726;52.520;13.434;2022-10-16T00:40:08;5.00;;;4.50;;
37885;SDS011;23726;52.520;13.434;2022-10-16T00:42:34;5.35;;;4.10;;
37885;SDS011;23726;52.520;13.434;2022-10-16T00:44:59;8.43;;;4.82;;
37885;SDS011;23726;52.520;13.434;2022-10-16T00:47:37;8.20;;;4.63;;
37885;SDS011;23726;52.520;13.434;2022-10-16T00:50:38;5.95;;;4.07;;
37885;SDS011;23726;52.520;13.434;2022-10-16T00:52:59;6.07;;;3.75;;
37885;SDS011;23726;52.520;13.434;2022-10-16T00:55:26;6.70;;;4.30;;
37885;SDS011;23726;52.520;13.434;2022-10-16T00:57:55;5.57;;;4.03;;
37885;SDS011;23726;52.520;13.434;2022-10-16T01:00:24;5.07;;;4.15;;
37885;SDS011;23726;52.520;13.434;2022-10-16T01:02:58;5.93;;;4.25;;
37885;SDS011;23726;52.520;13.434;2022-10-16T01:05:27;5.43;;;4.28;;
37885;SDS011;23726;52.520;13.434;2022-10-16T01:08:04;7.55;;;4.30;;
37885;SDS011;23726;52.520;13.434;2022-10-16T01:10:39;6.55;;;4.13;;
37885;SDS011;23726;52.520;13.434;2022-10-16T01:13:09;4.97;;;4.00;;
37885;SDS011;23726;52.520;13.434;2022-10-16T01:15:42;4.72;;;4.10;;
37885;SDS011;23726;52.520;13.434;2022-10-16T01:18:23;5.47;;;4.40;;
37885;SDS011;23726;52.520;13.434;2022-10-16T01:21:07;5.07;;;4.10;;
37885;SDS011;23726;52.520;13.434;2022-10-16T01:28:56;4.68;;;4.28;;
37885;SDS011;23726;52.520;13.434;2022-10-16T01:31:44;4.15;;;3.72;;
37885;SDS011;23726;52.520;13.434;2022-10-16T01:34:20;9.73;;;3.78;;
37885;SDS011;23726;52.520;13.434;2022-10-16T01:36:51;4.57;;;3.78;;
37885;SDS011;23726;52.520;13.434;2022-10-16T01:39:29;4.88;;;3.70;;
37885;SDS011;23726;52.520;13.434;2022-10-16T01:41:59;5.32;;;3.55;;
37885;SDS011;23726;52.520;13.434;2022-10-16T01:44:38;4.20;;;3.80;;
37885;SDS011;23726;52.520;13.434;2022-10-16T01:47:06;4.20;;;3.75;;
37885;SDS011;23726;52.520;13.434;2022-10-16T01:49:35;5.03;;;4.10;;
37885;SDS011;23726;52.520;13.434;2022-10-16T01:52:05;4.40;;;4.00;;
37885;SDS011;23726;52.520;13.434;2022-10-16T01:57:01;4.22;;;3.40;;
37885;SDS011;23726;52.520;13.434;2022-10-16T01:59:31;3.97;;;3.55;;
37885;SDS011;23726;52.520;13.434;2022-10-16T02:02:01;5.93;;;3.67;;
37885;SDS011;23726;52.520;13.434;2022-10-16T02:04:34;4.80;;;3.35;;
37885;SDS011;23726;52.520;13.434;2022-10-16T02:07:07;4.07;;;3.55;;
37885;SDS011;23726;52.520;13.434;2022-10-16T02:09:33;4.32;;;3.55;;
37885;SDS011;23726;52.520;13.434;2022-10-16T02:12:00;5.47;;;3.33;;
37885;SDS011;23726;52.520;13.434;2022-10-16T02:14:33;6.78;;;3.40;;
37885;SDS011;23726;52.520;13.434;2022-10-16T02:17:09;3.92;;;3.35;;
37885;SDS011;23726;52.520;13.434;2022-10-16T02:19:37;3.88;;;3.47;;
37885;SDS011;23726;52.520;13.434;2022-10-16T02:22:03;4.20;;;3.55;;
37885;SDS011;23726;52.520;13.434;2022-10-16T02:27:13;3.70;;;3.40;;
37885;SDS011;23726;52.520;13.434;2022-10-16T02:29:49;3.40;;;3.10;;
37885;SDS011;23726;52.520;13.434;2022-10-16T02:32:23;7.30;;;3.17;;
37885;SDS011;23726;52.520;13.434;2022-10-16T02:34:52;4.47;;;3.38;;
37885;SDS011;23726;52.520;13.434;2022-10-16T02:37:19;4.07;;;3.65;;
37885;SDS011;23726;52.520;13.434;2022-10-16T02:39:45;3.85;;;3.15;;
37885;SDS011;23726;52.520;13.434;2022-10-16T02:42:13;3.70;;;3.40;;
37885;SDS011;23726;52.520;13.434;2022-10-16T02:44:41;3.35;;;3.05;;
37885;SDS011;23726;52.520;13.434;2022-10-16T02:47:06;4.45;;;3.15;;
37885;SDS011;23726;52.520;13.434;2022-10-16T02:49:33;3.17;;;2.88;;
37885;SDS011;23726;52.520;13.434;2022-10-16T02:51:58;6.25;;;3.25;;
37885;SDS011;23726;52.520;13.434;2022-10-16T02:54:24;3.40;;;3.00;;
37885;SDS011;23726;52.520;13.434;2022-10-16T02:56:49;4.18;;;3.20;;
37885;SDS011;23726;52.520;13.434;2022-10-16T02:59:15;3.80;;;3.15;;
37885;SDS011;23726;52.520;13.434;2022-10-16T03:01:41;3.17;;;2.90;;
37885;SDS011;23726;52.520;13.434;2022-10-16T03:04:08;3.35;;;3.05;;
37885;SDS011;23726;52.520;13.434;2022-10-16T03:06:34;3.60;;;3.30;;
37885;SDS011;23726;52.520;13.434;2022-10-16T03:08:59;3.42;;;3.10;;
37885;SDS011;23726;52.520;13.434;2022-10-16T03:11:25;3.55;;;3.25;;
37885;SDS011;23726;52.520;13.434;2022-10-16T03:13:51;3.00;;;2.70;;
37885;SDS011;23726;52.520;13.434;2022-10-16T03:16:16;2.97;;;2.67;;
37885;SDS011;23726;52.520;13.434;2022-10-16T03:18:42;3.53;;;2.92;;
37885;SDS011;23726;52.520;13.434;2022-10-16T03:21:08;3.25;;;2.92;;
37885;SDS011;23726;52.520;13.434;2022-10-16T03:23:33;3.25;;;2.95;;
37885;SDS011;23726;52.520;13.434;2022-10-16T03:25:59;3.88;;;2.88;;
37885;SDS011;23726;52.520;13.434;2022-10-16T03:28:24;3.10;;;2.80;;
37885;SDS011;23726;52.520;13.434;2022-10-16T03:30:50;3.13;;;2.83;;
37885;SDS011;23726;52.520;13.434;2022-10-16T03:33:15;3.10;;;2.80;;
37885;SDS011;23726;52.520;13.434;2022-10-16T03:35:41;3.45;;;2.95;;
37885;SDS011;23726;52.520;13.434;2022-10-16T03:38:06;3.67;;;3.05;;
37885;SDS011;23726;52.520;13.434;2022-10-16T03:40:32;3.05;;;2.80;;
37885;SDS011;23726;52.520;13.434;2022-10-16T03:42:58;3.15;;;2.85;;
37885;SDS011;23726;52.520;13.434;2022-10-16T03:45:24;3.28;;;2.97;;
37885;SDS011;23726;52.520;13.434;2022-10-16T03:47:50;3.30;;;3.00;;
37885;SDS011;23726;52.520;13.434;2022-10-16T03:50:17;2.78;;;2.58;;
37885;SDS011;23726;52.520;13.434;2022-10-16T03:52:42;3.30;;;3.00;;
37885;SDS011;23726;52.520;13.434;2022-10-16T03:55:08;2.95;;;2.65;;
37885;SDS011;23726;52.520;13.434;2022-10-16T03:57:34;3.25;;;2.33;;
37885;SDS011;23726;52.520;13.434;2022-10-16T03:59:59;3.33;;;2.92;;
37885;SDS011;23726;52.520;13.434;2022-10-16T04:02:26;3.33;;;2.88;;
37885;SDS011;23726;52.520;13.434;2022-10-16T04:04:51;3.47;;;3.17;;
37885;SDS011;23726;52.520;13.434;2022-10-16T04:07:17;3.10;;;2.75;;
37885;SDS011;23726;52.520;13.434;2022-10-16T04:09:42;3.05;;;2.70;;
37885;SDS011;23726;52.520;13.434;2022-10-16T04:12:08;4.00;;;2.80;;
37885;SDS011;23726;52.520;13.434;2022-10-16T04:14:34;3.13;;;2.83;;
37885;SDS011;23726;52.520;13.434;2022-10-16T04:16:59;2.95;;;2.65;;
37885;SDS011;23726;52.520;13.434;2022-10-16T04:19:25;2.95;;;2.63;;
37885;SDS011;23726;52.520;13.434;2022-10-16T04:21:51;2.80;;;2.50;;
37885;SDS011;23726;52.520;13.434;2022-10-16T04:24:17;3.80;;;2.83;;
37885;SDS011;23726;52.520;13.434;2022-10-16T04:26:42;3.03;;;2.80;;
37885;SDS011;23726;52.520;13.434;2022-10-16T04:29:08;3.63;;;2.45;;
37885;SDS011;23726;52.520;13.434;2022-10-16T04:31:33;2.80;;;2.55;;
37885;SDS011;23726;52.520;13.434;2022-10-16T04:33:59;3.53;;;2.45;;
37885;SDS011;23726;52.520;13.434;2022-10-16T04:36:25;3.30;;;2.75;;
37885;SDS011;23726;52.520;13.434;2022-10-16T04:38:51;2.80;;;2.60;;
37885;SDS011;23726;52.520;13.434;2022-10-16T04:41:16;2.80;;;2.60;;
37885;SDS011;23726;52.520;13.434;2022-10-16T04:43:42;2.72;;;2.53;;
37885;SDS011;23726;52.520;13.434;2022-10-16T04:46:09;2.65;;;2.45;;
37885;SDS011;23726;52.520;13.434;2022-10-16T04:48:35;3.13;;;2.92;;
37885;SDS011;23726;52.520;13.434;2022-10-16T04:51:00;2.63;;;2.42;;
37885;SDS011;23726;52.520;13.434;2022-10-16T04:53:26;2.40;;;2.20;;
37885;SDS011;23726;52.520;13.434;2022-10-16T04:55:52;2.75;;;2.50;;
37885;SDS011;23726;52.520;13.434;2022-10-16T04:58:17;3.05;;;2.70;;
37885;SDS011;23726;52.520;13.434;2022-10-16T05:00:44;2.97;;;2.45;;
37885;SDS011;23726;52.520;13.434;2022-10-16T05:03:11;2.63;;;2.42;;
37885;SDS011;23726;52.520;13.434;2022-10-16T05:05:41;3.10;;;2.80;;
37885;SDS011;23726;52.520;13.434;2022-10-16T05:08:09;2.88;;;2.63;;
37885;SDS011;23726;52.520;13.434;2022-10-16T05:10:34;2.50;;;2.30;;
37885;SDS011;23726;52.520;13.434;2022-10-16T05:13:00;2.33;;;2.13;;
37885;SDS011;23726;52.520;13.434;2022-10-16T05:15:26;2.70;;;2.50;;
37885;SDS011;23726;52.520;13.434;2022-10-16T05:17:52;3.85;;;2.88;;
37885;SDS011;23726;52.520;13.434;2022-10-16T05:20:19;3.05;;;2.80;;
37885;SDS011;23726;52.520;13.434;2022-10-16T05:22:45;2.92;;;2.63;;
37885;SDS011;23726;52.520;13.434;2022-10-16T05:25:11;2.60;;;2.40;;
37885;SDS011;23726;52.520;13.434;2022-10-16T05:27:36;2.60;;;2.30;;
37885;SDS011;23726;52.520;13.434;2022-10-16T05:30:02;2.47;;;2.28;;
37885;SDS011;23726;52.520;13.434;2022-10-16T05:32:28;2.45;;;2.25;;
37885;SDS011;23726;52.520;13.434;2022-10-16T05:34:54;2.47;;;2.28;;
37885;SDS011;23726;52.520;13.434;2022-10-16T05:37:20;2.97;;;2.40;;
37885;SDS011;23726;52.520;13.434;2022-10-16T05:39:45;2.40;;;2.20;;
37885;SDS011;23726;52.520;13.434;2022-10-16T05:42:11;3.63;;;2.50;;
37885;SDS011;23726;52.520;13.434;2022-10-16T05:44:36;3.03;;;2.30;;
37885;SDS011;23726;52.520;13.434;2022-10-16T05:47:02;2.42;;;2.22;;
37885;SDS011;23726;52.520;13.434;2022-10-16T05:49:27;2.80;;;2.00;;
37885;SDS011;23726;52.520;13.434;2022-10-16T05:51:54;2.67;;;2.47;;
37885;SDS011;23726;52.520;13.434;2022-10-16T05:54:19;2.78;;;2.50;;
37885;SDS011;23726;52.520;13.434;2022-10-16T05:56:45;3.63;;;2.10;;
37885;SDS011;23726;52.520;13.434;2022-10-16T05:59:10;2.47;;;2.28;;
37885;SDS011;23726;52.520;13.434;2022-10-16T06:01:36;2.40;;;2.20;;
37885;SDS011;23726;52.520;13.434;2022-10-16T06:04:01;2.10;;;1.95;;
37885;SDS011;23726;52.520;13.434;2022-10-16T06:06:28;3.33;;;2.47;;
37885;SDS011;23726;52.520;13.434;2022-10-16T06:08:55;2.70;;;2.50;;
37885;SDS011;23726;52.520;13.434;2022-10-16T06:11:21;2.40;;;2.20;;
37885;SDS011;23726;52.520;13.434;2022-10-16T06:13:53;2.80;;;2.38;;
37885;SDS011;23726;52.520;13.434;2022-10-16T06:16:23;2.40;;;2.13;;
37885;SDS011;23726;52.520;13.434;2022-10-16T06:18:52;3.35;;;2.38;;
37885;SDS011;23726;52.520;13.434;2022-10-16T06:21:21;2.40;;;2.20;;
37885;SDS011;23726;52.520;13.434;2022-10-16T06:23:49;2.35;;;2.15;;
37885;SDS011;23726;52.520;13.434;2022-10-16T06:26:16;4.65;;;2.13;;
37885;SDS011;23726;52.520;13.434;2022-10-16T06:28:43;2.50;;;2.30;;
37885;SDS011;23726;52.520;13.434;2022-10-16T06:31:09;2.05;;;1.90;;
37885;SDS011;23726;52.520;13.434;2022-10-16T06:33:36;3.13;;;2.40;;
37885;SDS011;23726;52.520;13.434;2022-10-16T06:36:03;2.30;;;2.10;;
37885;SDS011;23726;52.520;13.434;2022-10-16T06:38:39;2.30;;;2.10;;
37885;SDS011;23726;52.520;13.434;2022-10-16T06:41:05;2.47;;;2.28;;
37885;SDS011;23726;52.520;13.434;2022-10-16T06:43:31;2.40;;;2.20;;
37885;SDS011;23726;52.520;13.434;2022-10-16T06:45:58;2.63;;;2.10;;
37885;SDS011;23726;52.520;13.434;2022-10-16T06:48:25;2.20;;;2.00;;
37885;SDS011;23726;52.520;13.434;2022-10-16T06:50:55;2.42;;;2.22;;
37885;SDS011;23726;52.520;13.434;2022-10-16T06:53:22;2.30;;;2.10;;
37885;SDS011;23726;52.520;13.434;2022-10-16T06:55:47;2.85;;;2.22;;
37885;SDS011;23726;52.520;13.434;2022-10-16T06:58:13;2.53;;;2.10;;
37885;SDS011;23726;52.520;13.434;2022-10-16T07:00:38;2.40;;;2.20;;
37885;SDS011;23726;52.520;13.434;2022-10-16T07:03:04;2.38;;;2.17;;
37885;SDS011;23726;52.520;13.434;2022-10-16T07:05:29;2.60;;;2.40;;
37885;SDS011;23726;52.520;13.434;2022-10-16T07:07:55;2.20;;;2.03;;
37885;SDS011;23726;52.520;13.434;2022-10-16T07:10:20;2.20;;;2.00;;
37885;SDS011;23726;52.520;13.434;2022-10-16T07:12:49;2.22;;;1.98;;
37885;SDS011;23726;52.520;13.434;2022-10-16T07:15:14;2.72;;;2.25;;
37885;SDS011;23726;52.520;13.434;2022-10-16T07:17:40;2.78;;;2.42;;
37885;SDS011;23726;52.520;13.434;2022-10-16T07:20:05;2.50;;;2.30;;
37885;SDS011;23726;52.520;13.434;2022-10-16T07:22:32;2.58;;;2.35;;
37885;SDS011;23726;52.520;13.434;2022-10-16T07:24:58;2.78;;;1.90;;
37885;SDS011;23726;52.520;13.434;2022-10-16T07:27:24;2.33;;;2.10;;
37885;SDS011;23726;52.520;13.434;2022-10-16T07:29:49;2.28;;;2.08;;
37885;SDS011;23726;52.520;13.434;2022-10-16T07:32:15;2.08;;;1.90;;
37885;SDS011;23726;52.520;13.434;2022-10-16T07:34:40;2.58;;;2.05;;
37885;SDS011;23726;52.520;13.434;2022-10-16T07:37:07;2.42;;;2.22;;
37885;SDS011;23726;52.520;13.434;2022-10-16T07:39:32;2.60;;;2.05;;
37885;SDS011;23726;52.520;13.434;2022-10-16T07:41:58;3.63;;;2.25;;
37885;SDS011;23726;52.520;13.434;2022-10-16T07:44:24;2.60;;;2.10;;
37885;SDS011;23726;52.520;13.434;2022-10-16T07:46:49;2.53;;;2.33;;
37885;SDS011;23726;52.520;13.434;2022-10-16T07:49:15;2.10;;;1.90;;
37885;SDS011;23726;52.520;13.434;2022-10-16T07:51:40;2.67;;;2.20;;
37885;SDS011;23726;52.520;13.434;2022-10-16T07:54:07;4.05;;;2.30;;
37885;SDS011;23726;52.520;13.434;2022-10-16T07:56:33;2.28;;;2.08;;
37885;SDS011;23726;52.520;13.434;2022-10-16T07:58:59;2.72;;;2.10;;
37885;SDS011;23726;52.520;13.434;2022-10-16T08:01:25;2.40;;;2.20;;
37885;SDS011;23726;52.520;13.434;2022-10-16T08:03:51;2.33;;;2.13;;
37885;SDS011;23726;52.520;13.434;2022-10-16T08:06:18;2.08;;;1.95;;
37885;SDS011;23726;52.520;13.434;2022-10-16T08:08:44;2.20;;;2.00;;
37885;SDS011;23726;52.520;13.434;2022-10-16T08:11:10;2.25;;;2.05;;
37885;SDS011;23726;52.520;13.434;2022-10-16T08:13:36;2.80;;;2.00;;
37885;SDS011;23726;52.520;13.434;2022-10-16T08:16:01;2.20;;;2.00;;
37885;SDS011;23726;52.520;13.434;2022-10-16T08:18:32;2.42;;;2.10;;
37885;SDS011;23726;52.520;13.434;2022-10-16T08:20:59;2.30;;;2.10;;
37885;SDS011;23726;52.520;13.434;2022-10-16T08:23:25;1.90;;;1.80;;
37885;SDS011;23726;52.520;13.434;2022-10-16T08:25:52;2.25;;;2.05;;
37885;SDS011;23726;52.520;13.434;2022-10-16T08:28:21;2.13;;;1.92;;
37885;SDS011;23726;52.520;13.434;2022-10-16T08:30:47;2.03;;;1.83;;
37885;SDS011;23726;52.520;13.434;2022-10-16T08:33:13;2.20;;;2.00;;
37885;SDS011;23726;52.520;13.434;2022-10-16T08:35:39;2.63;;;2.08;;
37885;SDS011;23726;52.520;13.434;2022-10-16T08:38:05;2.33;;;2.13;;
37885;SDS011;23726;52.520;13.434;2022-10-16T08:40:32;2.40;;;2.20;;
37885;SDS011;23726;52.520;13.434;2022-10-16T08:48:24;2.17;;;1.98;;
37885;SDS011;23726;52.520;13.434;2022-10-16T08:50:56;1.95;;;1.77;;
37885;SDS011;23726;52.520;13.434;2022-10-16T08:53:24;2.20;;;2.00;;
37885;SDS011;23726;52.520;13.434;2022-10-16T08:55:56;2.28;;;1.90;;
37885;SDS011;23726;52.520;13.434;2022-10-16T08:58:26;2.10;;;1.90;;
37885;SDS011;23726;52.520;13.434;2022-10-16T09:01:03;3.60;;;2.10;;
37885;SDS011;23726;52.520;13.434;2022-10-16T09:09:15;2.47;;;1.83;;
37885;SDS011;23726;52.520;13.434;2022-10-16T09:14:32;1.95;;;1.85;;
37885;SDS011;23726;52.520;13.434;2022-10-16T09:20:22;2.30;;;1.98;;
37885;SDS011;23726;52.520;13.434;2022-10-16T09:22:53;2.13;;;1.98;;
37885;SDS011;23726;52.520;13.434;2022-10-16T09:25:29;1.73;;;1.63;;
37885;SDS011;23726;52.520;13.434;2022-10-16T09:27:56;3.03;;;1.90;;
37885;SDS011;23726;52.520;13.434;2022-10-16T09:30:21;1.88;;;1.77;;
37885;SDS011;23726;52.520;13.434;2022-10-16T09:32:48;2.55;;;2.10;;
37885;SDS011;23726;52.520;13.434;2022-10-16T09:35:17;3.50;;;2.05;;
37885;SDS011;23726;52.520;13.434;2022-10-16T09:37:47;2.33;;;2.13;;
37885;SDS011;23726;52.520;13.434;2022-10-16T09:40:31;1.95;;;1.75;;
37885;SDS011;23726;52.520;13.434;2022-10-16T09:43:03;2.30;;;2.10;;
37885;SDS011;23726;52.520;13.434;2022-10-16T09:45:53;2.05;;;1.90;;
37885;SDS011;23726;52.520;13.434;2022-10-16T09:48:48;1.80;;;1.70;;
37885;SDS011;23726;52.520;13.434;2022-10-16T09:51:19;2.22;;;2.00;;
37885;SDS011;23726;52.520;13.434;2022-10-16T09:53:48;2.25;;;1.80;;
37885;SDS011;23726;52.520;13.434;2022-10-16T09:56:21;1.90;;;1.80;;
37885;SDS011;23726;52.520;13.434;2022-10-16T09:58:52;2.85;;;1.92;;
37885;SDS011;23726;52.520;13.434;2022-10-16T10:01:20;2.50;;;2.00;;
37885;SDS011;23726;52.520;13.434;2022-10-16T10:03:47;2.08;;;1.92;;
37885;SDS011;23726;52.520;13.434;2022-10-16T10:06:25;2.00;;;1.80;;
37885;SDS011;23726;52.520;13.434;2022-10-16T10:08:53;1.80;;;1.70;;
37885;SDS011;23726;52.520;13.434;2022-10-16T10:12:05;1.98;;;1.77;;
37885;SDS011;23726;52.520;13.434;2022-10-16T10:14:20;2.53;;;1.73;;
37885;SDS011;23726;52.520;13.434;2022-10-16T10:16:48;2.50;;;1.77;;
37885;SDS011;23726;52.520;13.434;2022-10-16T10:19:19;5.97;;;2.42;;
37885;SDS011;23726;52.520;13.434;2022-10-16T10:21:48;5.03;;;2.25;;
37885;SDS011;23726;52.520;13.434;2022-10-16T10:24:16;1.90;;;1.77;;
37885;SDS011;23726;52.520;13.434;2022-10-16T10:27:05;3.97;;;1.52;;
37885;SDS011;23726;52.520;13.434;2022-10-16T10:29:48;2.47;;;2.10;;
37885;SDS011;23726;52.520;13.434;2022-10-16T10:32:18;2.08;;;1.60;;
37885;SDS011;23726;52.520;13.434;2022-10-16T10:34:59;2.55;;;1.65;;
37885;SDS011;23726;52.520;13.434;2022-10-16T10:37:55;3.75;;;1.63;;
37885;SDS011;23726;52.520;13.434;2022-10-16T10:40:45;2.10;;;1.90;;
37885;SDS011;23726;52.520;13.434;2022-10-16T10:43:24;2.13;;;1.90;;
37885;SDS011;23726;52.520;13.434;2022-10-16T10:46:15;1.80;;;1.65;;
37885;SDS011;23726;52.520;13.434;2022-10-16T10:56:42;2.20;;;1.60;;
37885;SDS011;23726;52.520;13.434;2022-10-16T10:59:21;2.75;;;1.90;;
37885;SDS011;23726;52.520;13.434;2022-10-16T11:01:52;2.95;;;1.75;;
37885;SDS011;23726;52.520;13.434;2022-10-16T11:06:59;3.00;;;1.80;;
37885;SDS011;23726;52.520;13.434;2022-10-16T11:09:34;2.42;;;1.90;;
37885;SDS011;23726;52.520;13.434;2022-10-16T11:12:10;2.05;;;1.70;;
37885;SDS011;23726;52.520;13.434;2022-10-16T11:14:42;1.88;;;1.77;;
37885;SDS011;23726;52.520;13.434;2022-10-16T11:17:15;1.85;;;1.75;;
37885;SDS011;23726;52.520;13.434;2022-10-16T11:25:18;1.90;;;1.63;;
37885;SDS011;23726;52.520;13.434;2022-10-16T11:30:47;2.10;;;1.80;;
37885;SDS011;23726;52.520;13.434;2022-10-16T11:35:50;4.05;;;2.50;;
37885;SDS011;23726;52.520;13.434;2022-10-16T11:47:02;11.52;;;5.65;;
37885;SDS011;23726;52.520;13.434;2022-10-16T11:49:33;16.05;;;8.25;;
37885;SDS011;23726;52.520;13.434;2022-10-16T11:52:16;17.20;;;8.23;;
37885;SDS011;23726;52.520;13.434;2022-10-16T11:55:01;21.70;;;8.05;;
37885;SDS011;23726;52.520;13.434;2022-10-16T11:57:45;18.55;;;7.97;;
37885;SDS011;23726;52.520;13.434;2022-10-16T12:00:24;18.65;;;8.27;;
37885;SDS011;23726;52.520;13.434;2022-10-16T12:02:57;16.42;;;7.68;;
37885;SDS011;23726;52.520;13.434;2022-10-16T12:05:55;15.10;;;7.00;;
37885;SDS011;23726;52.520;13.434;2022-10-16T12:08:35;17.95;;;6.75;;
37885;SDS011;23726;52.520;13.434;2022-10-16T12:11:36;11.95;;;6.38;;
37885;SDS011;23726;52.520;13.434;2022-10-16T12:16:59;10.45;;;5.78;;
37885;SDS011;23726;52.520;13.434;2022-10-16T12:19:30;12.13;;;5.35;;
37885;SDS011;23726;52.520;13.434;2022-10-16T12:21:58;10.48;;;5.30;;
37885;SDS011;23726;52.520;13.434;2022-10-16T12:24:46;11.63;;;5.75;;
37885;SDS011;23726;52.520;13.434;2022-10-16T12:27:24;10.43;;;5.00;;
37885;SDS011;23726;52.520;13.434;2022-10-16T12:29:55;13.27;;;4.88;;
37885;SDS011;23726;52.520;13.434;2022-10-16T12:32:34;8.40;;;4.80;;
37885;SDS011;23726;52.520;13.434;2022-10-16T12:35:03;14.95;;;4.82;;
37885;SDS011;23726;52.520;13.434;2022-10-16T12:37:35;8.32;;;4.35;;
37885;SDS011;23726;52.520;13.434;2022-10-16T12:40:12;9.05;;;4.30;;
37885;SDS011;23726;52.520;13.434;2022-10-16T12:42:41;8.50;;;4.60;;
37885;SDS011;23726;52.520;13.434;2022-10-16T12:47:56;6.75;;;3.85;;
37885;SDS011;23726;52.520;13.434;2022-10-16T12:50:33;7.88;;;3.90;;
37885;SDS011;23726;52.520;13.434;2022-10-16T12:53:02;5.65;;;3.95;;
37885;SDS011;23726;52.520;13.434;2022-10-16T12:55:52;6.00;;;3.63;;
37885;SDS011;23726;52.520;13.434;2022-10-16T12:58:47;5.47;;;3.05;;
37885;SDS011;23726;52.520;13.434;2022-10-16T13:01:36;6.47;;;2.87;;
37885;SDS011;23726;52.520;13.434;2022-10-16T13:07:26;6.28;;;2.70;;
37885;SDS011;23726;52.520;13.434;2022-10-16T13:10:08;5.38;;;2.47;;
37885;SDS011;23726;52.520;13.434;2022-10-16T13:18:30;3.47;;;1.98;;
37885;SDS011;23726;52.520;13.434;2022-10-16T13:21:07;3.20;;;2.20;;
37885;SDS011;23726;52.520;13.434;2022-10-16T13:24:38;4.90;;;2.15;;
37885;SDS011;23726;52.520;13.434;2022-10-16T13:26:57;4.57;;;1.92;;
37885;SDS011;23726;52.520;13.434;2022-10-16T13:29:37;7.07;;;2.47;;
37885;SDS011;23726;52.520;13.434;2022-10-16T13:32:09;3.40;;;2.35;;
37885;SDS011;23726;52.520;13.434;2022-10-16T13:34:44;2.80;;;2.10;;
37885;SDS011;23726;52.520;13.434;2022-10-16T13:37:20;5.63;;;2.00;;
37885;SDS011;23726;52.520;13.434;2022-10-16T13:39:47;2.15;;;1.90;;
37885;SDS011;23726;52.520;13.434;2022-10-16T13:42:20;4.50;;;1.70;;
37885;SDS011;23726;52.520;13.434;2022-10-16T13:44:50;8.00;;;1.77;;
37885;SDS011;23726;52.520;13.434;2022-10-16T13:47:27;23.90;;;4.35;;
37885;SDS011;23726;52.520;13.434;2022-10-16T13:50:05;84.88;;;18.40;;
37885;SDS011;23726;52.520;13.434;2022-10-16T13:52:36;80.65;;;19.90;;
37885;SDS011;23726;52.520;13.434;2022-10-16T13:55:03;96.28;;;21.02;;
37885;SDS011;23726;52.520;13.434;2022-10-16T13:57:29;95.68;;;19.15;;
37885;SDS011;23726;52.520;13.434;2022-10-16T13:59:55;72.00;;;16.00;;
37885;SDS011;23726;52.520;13.434;2022-10-16T14:02:22;68.85;;;15.25;;
37885;SDS011;23726;52.520;13.434;2022-10-16T14:04:52;61.30;;;14.90;;
37885;SDS011;23726;52.520;13.434;2022-10-16T14:07:40;62.75;;;15.02;;
37885;SDS011;23726;52.520;13.434;2022-10-16T14:10:06;59.63;;;12.95;;
37885;SDS011;23726;52.520;13.434;2022-10-16T14:12:45;40.03;;;10.02;;
37885;SDS011;23726;52.520;13.434;2022-10-16T14:15:18;22.60;;;6.63;;
37885;SDS011;23726;52.520;13.434;2022-10-16T14:17:44;18.42;;;5.35;;
37885;SDS011;23726;52.520;13.434;2022-10-16T14:20:14;15.82;;;4.70;;
37885;SDS011;23726;52.520;13.434;2022-10-16T14:22:41;9.20;;;3.08;;
37885;SDS011;23726;52.520;13.434;2022-10-16T14:30:55;8.13;;;2.88;;
37885;SDS011;23726;52.520;13.434;2022-10-16T14:35:59;8.48;;;2.45;;
37885;SDS011;23726;52.520;13.434;2022-10-16T14:38:34;6.00;;;2.90;;
37885;SDS011;23726;52.520;13.434;2022-10-16T14:41:01;8.25;;;2.50;;
37885;SDS011;23726;52.520;13.434;2022-10-16T14:43:31;8.88;;;3.05;;
37885;SDS011;23726;52.520;13.434;2022-10-16T14:46:17;3.67;;;2.15;;
37885;SDS011;23726;52.520;13.434;2022-10-16T14:48:59;6.63;;;2.10;;
37885;SDS011;23726;52.520;13.434;2022-10-16T14:51:34;5.15;;;2.65;;
37885;SDS011;23726;52.520;13.434;2022-10-16T14:54:00;6.70;;;2.50;;
37885;SDS011;23726;52.520;13.434;2022-10-16T14:56:31;5.43;;;1.80;;
37885;SDS011;23726;52.520;13.434;2022-10-16T14:59:44;6.50;;;2.10;;
37885;SDS011;23726;52.520;13.434;2022-10-16T15:02:49;6.18;;;2.35;;
37885;SDS011;23726;52.520;13.434;2022-10-16T15:05:17;4.32;;;2.17;;
37885;SDS011;23726;52.520;13.434;2022-10-16T15:07:50;6.47;;;2.20;;
37885;SDS011;23726;52.520;13.434;2022-10-16T15:10:21;4.55;;;2.33;;
37885;SDS011;23726;52.520;13.434;2022-10-16T15:12:52;9.93;;;2.28;;
37885;SDS011;23726;52.520;13.434;2022-10-16T15:15:29;5.13;;;1.98;;
37885;SDS011;23726;52.520;13.434;2022-10-16T15:18:02;5.28;;;2.33;;
37885;SDS011;23726;52.520;13.434;2022-10-16T15:20:31;5.18;;;2.00;;
37885;SDS011;23726;52.520;13.434;2022-10-16T15:23:09;5.35;;;2.45;;
37885;SDS011;23726;52.520;13.434;2022-10-16T15:25:43;5.78;;;2.33;;
37885;SDS011;23726;52.520;13.434;2022-10-16T15:28:14;6.03;;;2.08;;
37885;SDS011;23726;52.520;13.434;2022-10-16T15:30:43;5.05;;;2.20;;
37885;SDS011;23726;52.520;13.434;2022-10-16T15:33:12;4.78;;;2.22;;
37885;SDS011;23726;52.520;13.434;2022-10-16T15:35:40;3.60;;;1.80;;
37885;SDS011;23726;52.520;13.434;2022-10-16T15:38:13;4.32;;;2.10;;
37885;SDS011;23726;52.520;13.434;2022-10-16T15:40:41;4.45;;;1.95;;
37885;SDS011;23726;52.520;13.434;2022-10-16T15:43:09;3.22;;;2.30;;
37885;SDS011;23726;52.520;13.434;2022-10-16T15:45:38;3.50;;;2.13;;
37885;SDS011;23726;52.520;13.434;2022-10-16T15:48:05;7.13;;;2.42;;
37885;SDS011;23726;52.520;13.434;2022-10-16T15:50:37;6.03;;;2.40;;
37885;SDS011;23726;52.520;13.434;2022-10-16T15:53:03;5.20;;;2.10;;
37885;SDS011;23726;52.520;13.434;2022-10-16T15:55:28;2.83;;;1.60;;
37885;SDS011;23726;52.520;13.434;2022-10-16T15:57:54;3.47;;;1.90;;
37885;SDS011;23726;52.520;13.434;2022-10-16T16:00:20;4.40;;;2.17;;
37885;SDS011;23726;52.520;13.434;2022-10-16T16:02:50;6.30;;;1.95;;
37885;SDS011;23726;52.520;13.434;2022-10-16T16:07:43;3.00;;;1.92;;
37885;SDS011;23726;52.520;13.434;2022-10-16T16:10:09;3.10;;;1.70;;
37885;SDS011;23726;52.520;13.434;2022-10-16T16:12:36;2.60;;;1.90;;
37885;SDS011;23726;52.520;13.434;2022-10-16T16:15:06;2.10;;;1.90;;